LFRQ/UIP METAR and TAF weather

Enter ICAO airport designator
Station Type Date Time Source
LFRQ METAR 2019/04/23 00:00 UTC NOAA

LFRQ 230000Z AUTO 14006KT CAVOK 14/09 Q0995 NOSIG


Station Type Date Time Source
LFRQ Decoded METAR 2019/04/23 00:00 UTC NOAA

Quimper, France (LFRQ) 47-58N 004-10W 94M
Apr 22, 2019 - 08:00 PM EDT / 2019.04.23 0000 UTC
Wind: from the SE (140 degrees) at 7 MPH (6 KT):0
Visibility: greater than 7 mile(s):0
Temperature: 57 F (14 C)
Dew Point: 48 F (9 C)
Relative Humidity: 71%
Pressure (altimeter): 29.38 in. Hg (0995 hPa)
ob: LFRQ 230000Z AUTO 14006KT CAVOK 14/09 Q0995 NOSIG
cycle: 0

Station Type Date Time Source
LFRQ TAF 2019/04/22 22:06 UTC NOAA

TAF LFRQ 222259Z 2222/2312 CNL

Example: see airport list